Time;durP1;ratioP1;P1;durP2;ratioP2;P2;SDS_P1;SDS_P2;PMS_P1;PMS_P2;Temp;Humidity;BMP_temperature;BMP_pressure;BME280_temperature;BME280_humidity;BME280_pressure;Samples;Min_cycle;Max_cycle;Signal;HPM_P1;HPM_P2
2022/03/03 00:01:24;;;;;;;;;;;22.10;49.50;;;;;;5035535;28;992;-43
2022/03/03 00:03:51;;;;;;;;;;;22.10;49.30;;;;;;5035473;28;936;-40
2022/03/03 00:06:18;;;;;;;;;;;22.10;49.30;;;;;;5034601;28;1058;-40
2022/03/03 00:08:44;;;;;;;;;;;22.10;49.20;;;;;;5034213;28;987;-40
2022/03/03 00:11:11;;;;;;;;;;;22.10;49.30;;;;;;5034270;28;1028;-42
2022/03/03 00:13:38;;;;;;;;;;;22.10;49.10;;;;;;5035162;28;995;-39
2022/03/03 00:16:07;;;;;;;;;;;22.10;49.30;;;;;;5034058;28;968;-41
2022/03/03 00:18:34;;;;;;;;;;;22.10;49.00;;;;;;5034618;28;1902;-40
2022/03/03 00:21:01;;;;;;;;;;;22.10;49.30;;;;;;5033945;28;936;-39
2022/03/03 00:23:28;;;;;;;;;;;22.10;49.30;;;;;;5033532;28;936;-42
2022/03/03 00:25:54;;;;;;;;;;;22.10;49.10;;;;;;5033503;28;999;-40
2022/03/03 00:28:21;;;;;;;;;;;22.10;49.10;;;;;;5033564;28;966;-39
2022/03/03 00:30:48;;;;;;;;;;;22.10;49.00;;;;;;5034411;28;940;-42
2022/03/03 00:33:16;;;;;;;;;;;22.20;49.00;;;;;;5035027;28;1020;-43
2022/03/03 00:35:43;;;;;;;;;;;22.10;49.00;;;;;;5035474;28;933;-40
2022/03/03 00:38:10;;;;;;;;;;;22.20;48.90;;;;;;5034453;28;1890;-42
2022/03/03 00:40:37;;;;;;;;;;;22.20;48.90;;;;;;5034156;28;999;-40
2022/03/03 00:43:04;;;;;;;;;;;22.20;48.80;;;;;;5035284;28;1008;-38
2022/03/03 00:45:31;;;;;;;;;;;22.20;48.90;;;;;;5034874;28;935;-42
2022/03/03 00:47:58;;;;;;;;;;;22.20;48.80;;;;;;5034682;28;968;-40
2022/03/03 00:50:26;;;;;;;;;;;22.20;48.90;;;;;;5034822;28;1072;-41
2022/03/03 00:52:53;;;;;;;;;;;22.10;49.20;;;;;;5034589;28;1016;-41
2022/03/03 00:55:20;;;;;;;;;;;22.10;49.00;;;;;;5034617;28;996;-39
2022/03/03 00:57:46;;;;;;;;;;;22.20;48.90;;;;;;5035136;28;1880;-41
2022/03/03 01:00:14;;;;;;;;;;;22.20;48.70;;;;;;5034613;28;1012;-44
2022/03/03 01:02:40;;;;;;;;;;;22.10;48.80;;;;;;5034583;28;1036;-42
2022/03/03 01:05:08;;;;;;;;;;;22.10;48.90;;;;;;5034487;28;994;-39
2022/03/03 01:07:36;;;;;;;;;;;22.10;48.80;;;;;;5035213;28;1172;-40
2022/03/03 01:10:04;;;;;;;;;;;22.10;48.90;;;;;;5034842;28;988;-39
2022/03/03 01:12:31;;;;;;;;;;;22.00;48.70;;;;;;5034382;28;995;-44
2022/03/03 01:14:57;;;;;;;;;;;22.00;48.70;;;;;;5034999;28;933;-39
2022/03/03 01:17:24;;;;;;;;;;;22.00;48.70;;;;;;5034313;28;1902;-40
2022/03/03 01:19:51;;;;;;;;;;;22.00;48.60;;;;;;5034347;28;1009;-43
2022/03/03 01:22:18;;;;;;;;;;;22.00;48.70;;;;;;5034164;28;957;-42
2022/03/03 01:24:46;;;;;;;;;;;22.00;48.60;;;;;;5033767;28;877;-40
2022/03/03 01:27:13;;;;;;;;;;;22.00;48.60;;;;;;5034537;28;937;-40
2022/03/03 01:29:40;;;;;;;;;;;22.00;48.70;;;;;;5034534;28;944;-39
2022/03/03 01:32:07;;;;;;;;;;;22.00;48.70;;;;;;5034698;28;987;-39
2022/03/03 01:34:35;;;;;;;;;;;22.00;48.60;;;;;;5034229;28;951;-40
2022/03/03 01:37:02;;;;;;;;;;;22.00;48.70;;;;;;5035175;28;1975;-40
2022/03/03 01:39:29;;;;;;;;;;;22.00;48.70;;;;;;5034388;28;1004;-39
2022/03/03 01:41:57;;;;;;;;;;;21.90;48.70;;;;;;5034352;28;1008;-39
2022/03/03 01:44:24;;;;;;;;;;;21.90;48.60;;;;;;5034533;28;989;-41
2022/03/03 01:46:52;;;;;;;;;;;21.90;48.50;;;;;;5033904;28;940;-40
2022/03/03 01:49:19;;;;;;;;;;;21.90;48.60;;;;;;5034099;28;997;-43
2022/03/03 01:51:46;;;;;;;;;;;21.90;48.70;;;;;;5034783;28;1003;-39
2022/03/03 01:54:13;;;;;;;;;;;21.90;48.70;;;;;;5034057;28;944;-40
2022/03/03 01:56:40;;;;;;;;;;;21.90;48.70;;;;;;5034507;28;984;-40
2022/03/03 01:59:09;;;;;;;;;;;21.90;48.70;;;;;;5033536;28;1906;-42
2022/03/03 02:01:36;;;;;;;;;;;21.90;48.70;;;;;;5034012;28;995;-43
2022/03/03 02:04:05;;;;;;;;;;;21.80;48.60;;;;;;5034203;28;964;-40
2022/03/03 02:06:32;;;;;;;;;;;21.80;48.60;;;;;;5034189;28;1161;-40
2022/03/03 02:08:58;;;;;;;;;;;21.80;48.60;;;;;;5034405;28;944;-41
2022/03/03 02:11:26;;;;;;;;;;;21.80;48.60;;;;;;5034915;28;985;-40
2022/03/03 02:13:53;;;;;;;;;;;21.80;48.60;;;;;;5034936;28;957;-42
2022/03/03 02:16:21;;;;;;;;;;;21.80;48.60;;;;;;5034204;28;976;-40
2022/03/03 02:18:48;;;;;;;;;;;21.80;48.70;;;;;;5034968;28;1985;-41
2022/03/03 02:21:16;;;;;;;;;;;21.80;48.60;;;;;;5034760;28;992;-40
2022/03/03 02:23:43;;;;;;;;;;;21.80;48.60;;;;;;5034410;28;924;-40
2022/03/03 02:26:13;;;;;;;;;;;21.80;48.60;;;;;;5034746;28;1008;-43
2022/03/03 02:28:40;;;;;;;;;;;21.80;48.60;;;;;;5034491;28;1239;-39
2022/03/03 02:31:07;;;;;;;;;;;21.80;48.60;;;;;;5034317;28;1160;-38
2022/03/03 02:33:34;;;;;;;;;;;21.80;48.50;;;;;;5034283;28;952;-39
2022/03/03 02:36:15;;;;;;;;;;;21.80;48.40;;;;;;5037894;28;972;-41
2022/03/03 02:38:42;;;;;;;;;;;21.80;48.50;;;;;;5037780;28;1910;-41
2022/03/03 02:41:09;;;;;;;;;;;21.70;48.60;;;;;;5038214;28;947;-42
2022/03/03 02:43:36;;;;;;;;;;;21.80;48.60;;;;;;5037599;28;1003;-40
2022/03/03 02:46:02;;;;;;;;;;;21.70;48.60;;;;;;5037688;28;1013;-40
2022/03/03 02:48:29;;;;;;;;;;;21.70;48.60;;;;;;5037478;28;973;-43
2022/03/03 02:50:56;;;;;;;;;;;21.70;48.50;;;;;;5037778;28;941;-39
2022/03/03 02:53:24;;;;;;;;;;;21.70;48.50;;;;;;5037525;28;996;-42
2022/03/03 02:55:51;;;;;;;;;;;21.70;48.50;;;;;;5037607;28;990;-40
2022/03/03 02:58:17;;;;;;;;;;;21.70;48.60;;;;;;5037279;28;1985;-39
2022/03/03 03:00:44;;;;;;;;;;;21.70;48.60;;;;;;5038050;28;1008;-39
2022/03/03 03:03:11;;;;;;;;;;;21.70;48.70;;;;;;5037926;28;943;-40
2022/03/03 03:05:38;;;;;;;;;;;21.70;48.70;;;;;;5037294;28;1004;-39
2022/03/03 03:08:05;;;;;;;;;;;21.60;48.70;;;;;;5037866;28;1042;-40
2022/03/03 03:10:33;;;;;;;;;;;21.70;48.70;;;;;;5037135;28;996;-40
2022/03/03 03:13:00;;;;;;;;;;;21.70;48.70;;;;;;5037676;28;960;-42
2022/03/03 03:15:27;;;;;;;;;;;21.70;48.70;;;;;;5037193;28;945;-43
2022/03/03 03:17:53;;;;;;;;;;;21.60;48.70;;;;;;5036734;28;1988;-42
2022/03/03 03:20:20;;;;;;;;;;;21.70;48.70;;;;;;5037159;28;1015;-40
2022/03/03 03:22:49;;;;;;;;;;;21.60;48.80;;;;;;5036530;28;979;-40
2022/03/03 03:25:16;;;;;;;;;;;21.60;48.70;;;;;;5035696;28;1015;-39
2022/03/03 03:27:44;;;;;;;;;;;21.60;48.80;;;;;;5036379;28;981;-40
2022/03/03 03:30:11;;;;;;;;;;;21.60;48.80;;;;;;5035440;28;1879;-41
2022/03/03 03:32:38;;;;;;;;;;;21.60;48.90;;;;;;5035238;28;913;-39
2022/03/03 03:35:06;;;;;;;;;;;21.50;48.80;;;;;;5034911;28;909;-41
2022/03/03 03:37:32;;;;;;;;;;;21.50;48.80;;;;;;5035094;28;992;-41
2022/03/03 03:39:59;;;;;;;;;;;21.60;48.80;;;;;;5035628;28;1973;-42
2022/03/03 03:42:26;;;;;;;;;;;21.60;48.80;;;;;;5035554;28;924;-40
2022/03/03 03:44:54;;;;;;;;;;;21.50;48.80;;;;;;5035277;28;1018;-42
2022/03/03 03:47:20;;;;;;;;;;;21.60;48.80;;;;;;5034648;28;1302;-37
2022/03/03 03:49:47;;;;;;;;;;;21.60;48.90;;;;;;5035508;28;985;-41
2022/03/03 03:52:14;;;;;;;;;;;21.50;48.70;;;;;;5035660;28;940;-40
2022/03/03 03:54:40;;;;;;;;;;;21.50;48.70;;;;;;5035355;28;951;-40
2022/03/03 03:57:07;;;;;;;;;;;21.50;48.70;;;;;;5035809;28;1228;-40
2022/03/03 03:59:35;;;;;;;;;;;21.50;48.80;;;;;;5035122;28;1899;-40
2022/03/03 04:02:03;;;;;;;;;;;21.50;48.80;;;;;;5035962;28;1033;-40
2022/03/03 04:04:30;;;;;;;;;;;21.50;48.80;;;;;;5035316;28;1010;-40
2022/03/03 04:06:57;;;;;;;;;;;21.50;48.80;;;;;;5035253;28;1101;-42
2022/03/03 04:09:23;;;;;;;;;;;21.50;48.80;;;;;;5035527;28;977;-44
2022/03/03 04:11:50;;;;;;;;;;;21.50;48.80;;;;;;5036675;28;1073;-39
2022/03/03 04:14:17;;;;;;;;;;;21.50;48.80;;;;;;5035904;28;1013;-43
2022/03/03 04:16:43;;;;;;;;;;;21.40;48.80;;;;;;5036094;28;991;-43
2022/03/03 04:19:11;;;;;;;;;;;21.40;48.90;;;;;;5035741;28;1987;-41
2022/03/03 04:21:38;;;;;;;;;;;21.40;48.80;;;;;;5036040;28;1031;-39
2022/03/03 04:24:06;;;;;;;;;;;21.40;49.90;;;;;;5035981;28;914;-39
2022/03/03 04:26:33;;;;;;;;;;;21.40;48.80;;;;;;5035628;28;1040;-41
2022/03/03 04:29:00;;;;;;;;;;;21.50;48.80;;;;;;5035132;28;949;-43
2022/03/03 04:31:27;;;;;;;;;;;21.40;48.80;;;;;;5034313;28;953;-40
2022/03/03 04:33:55;;;;;;;;;;;21.40;48.70;;;;;;5034851;28;1082;-41
2022/03/03 04:36:23;;;;;;;;;;;21.40;48.70;;;;;;5035383;28;1046;-42
2022/03/03 04:38:50;;;;;;;;;;;21.40;48.90;;;;;;5034557;28;1988;-41
2022/03/03 04:41:17;;;;;;;;;;;21.50;50.20;;;;;;5034953;28;993;-41
2022/03/03 04:43:44;;;;;;;;;;;21.50;49.10;;;;;;5035451;28;997;-41
2022/03/03 04:46:11;;;;;;;;;;;21.60;49.20;;;;;;5034547;28;993;-40
2022/03/03 04:48:37;;;;;;;;;;;21.70;49.20;;;;;;5033593;28;1012;-42
2022/03/03 04:51:04;;;;;;;;;;;21.70;49.10;;;;;;5033817;28;1032;-40
2022/03/03 04:53:33;;;;;;;;;;;21.80;49.20;;;;;;5033191;28;964;-40
2022/03/03 04:55:59;;;;;;;;;;;21.90;49.00;;;;;;5034920;28;1028;-44
2022/03/03 04:58:26;;;;;;;;;;;21.90;48.90;;;;;;5032664;28;1894;-39
2022/03/03 05:00:53;;;;;;;;;;;21.90;48.70;;;;;;5033117;28;1771;-42
2022/03/03 05:03:20;;;;;;;;;;;22.00;48.90;;;;;;5032621;28;877;-42
2022/03/03 05:05:46;;;;;;;;;;;22.00;48.80;;;;;;5031966;28;1000;-40
2022/03/03 05:08:13;;;;;;;;;;;22.00;48.70;;;;;;5032549;28;1275;-40
2022/03/03 05:10:41;;;;;;;;;;;22.00;48.80;;;;;;5034099;28;920;-43
2022/03/03 05:13:08;;;;;;;;;;;22.00;48.90;;;;;;5033298;28;1023;-41
2022/03/03 05:15:35;;;;;;;;;;;22.00;48.90;;;;;;5033096;28;961;-44
2022/03/03 05:18:02;;;;;;;;;;;22.00;48.90;;;;;;5032921;28;956;-45
2022/03/03 05:20:29;;;;;;;;;;;22.00;48.90;;;;;;5031403;28;1943;-45
2022/03/03 05:22:55;;;;;;;;;;;22.10;48.90;;;;;;5032888;28;870;-44
2022/03/03 05:25:22;;;;;;;;;;;22.10;48.90;;;;;;5032890;28;1001;-42
2022/03/03 05:27:51;;;;;;;;;;;22.10;48.90;;;;;;5031989;28;996;-45
2022/03/03 05:30:18;;;;;;;;;;;22.00;48.80;;;;;;5032306;28;1011;-43
2022/03/03 05:32:47;;;;;;;;;;;22.00;48.80;;;;;;5032523;28;996;-41
2022/03/03 05:35:14;;;;;;;;;;;22.00;48.70;;;;;;5032995;28;984;-42
2022/03/03 05:37:41;;;;;;;;;;;22.00;48.70;;;;;;5032652;28;1027;-41
2022/03/03 05:40:08;;;;;;;;;;;22.00;48.80;;;;;;5033312;28;1918;-41
2022/03/03 05:42:36;;;;;;;;;;;22.00;48.80;;;;;;5032357;28;877;-44
2022/03/03 05:45:04;;;;;;;;;;;22.00;48.80;;;;;;5032616;28;962;-45
2022/03/03 05:47:31;;;;;;;;;;;22.00;48.90;;;;;;5031609;28;1153;-45
2022/03/03 05:49:59;;;;;;;;;;;22.00;48.80;;;;;;5031528;28;962;-43
2022/03/03 05:52:25;;;;;;;;;;;22.00;48.90;;;;;;5031724;28;992;-41
2022/03/03 05:54:52;;;;;;;;;;;22.00;48.80;;;;;;5030796;28;1763;-44
2022/03/03 05:57:22;;;;;;;;;;;22.00;48.90;;;;;;5031686;28;984;-45
2022/03/03 05:59:52;;;;;;;;;;;21.90;48.90;;;;;;5030513;28;2001;-43
2022/03/03 06:02:21;;;;;;;;;;;21.90;49.00;;;;;;5031605;28;1047;-42
2022/03/03 06:04:48;;;;;;;;;;;21.90;49.10;;;;;;5031743;28;891;-43
2022/03/03 06:07:20;;;;;;;;;;;21.80;49.10;;;;;;5032361;28;1177;-41
2022/03/03 06:09:51;;;;;;;;;;;21.80;49.20;;;;;;5034044;28;1028;-44
2022/03/03 06:12:20;;;;;;;;;;;21.70;49.20;;;;;;5036185;28;991;-44
2022/03/03 06:14:48;;;;;;;;;;;21.80;49.30;;;;;;5037075;28;1862;-44
2022/03/03 06:17:15;;;;;;;;;;;21.80;49.20;;;;;;5034702;28;939;-45
2022/03/03 06:19:44;;;;;;;;;;;21.70;49.20;;;;;;5034707;28;1902;-43
2022/03/03 06:22:11;;;;;;;;;;;21.70;49.20;;;;;;5036067;28;975;-41
2022/03/03 06:24:38;;;;;;;;;;;21.80;49.20;;;;;;5033696;28;938;-40
2022/03/03 06:27:06;;;;;;;;;;;21.70;49.20;;;;;;5032246;28;1017;-43
2022/03/03 06:29:33;;;;;;;;;;;21.70;49.20;;;;;;5032631;28;1007;-41
2022/03/03 06:32:00;;;;;;;;;;;21.70;49.30;;;;;;5032519;28;1026;-41
2022/03/03 06:34:26;;;;;;;;;;;21.70;49.40;;;;;;5033595;28;947;-43
2022/03/03 06:36:55;;;;;;;;;;;21.70;49.40;;;;;;5034048;28;989;-43
2022/03/03 06:39:21;;;;;;;;;;;21.70;49.40;;;;;;5032823;28;1902;-45
2022/03/03 06:41:48;;;;;;;;;;;21.70;49.20;;;;;;5034055;28;1039;-43
2022/03/03 06:44:15;;;;;;;;;;;21.70;49.30;;;;;;5034400;28;988;-44
2022/03/03 06:46:42;;;;;;;;;;;21.90;49.00;;;;;;5034936;28;965;-46
2022/03/03 06:49:09;;;;;;;;;;;21.80;49.00;;;;;;5034042;28;1008;-41
2022/03/03 06:51:39;;;;;;;;;;;21.70;49.40;;;;;;5034104;28;1023;-39
2022/03/03 06:54:10;;;;;;;;;;;21.80;49.10;;;;;;5033840;28;1715;-42
2022/03/03 06:56:40;;;;;;;;;;;21.80;49.10;;;;;;5033824;28;971;-38
2022/03/03 06:59:07;;;;;;;;;;;21.80;49.10;;;;;;5034558;28;1971;-39
2022/03/03 07:01:34;;;;;;;;;;;21.70;49.20;;;;;;5033677;28;999;-39
2022/03/03 07:04:01;;;;;;;;;;;21.80;49.50;;;;;;5033948;28;951;-46
2022/03/03 07:06:28;;;;;;;;;;;21.80;49.60;;;;;;5035504;28;1132;-42
2022/03/03 07:08:55;;;;;;;;;;;21.90;49.40;;;;;;5034257;28;968;-46
2022/03/03 07:11:24;;;;;;;;;;;21.90;49.00;;;;;;5034967;28;988;-45
2022/03/03 07:13:51;;;;;;;;;;;21.90;49.20;;;;;;5034334;28;1005;-43
2022/03/03 07:16:22;;;;;;;;;;;21.90;49.20;;;;;;5035046;28;995;-46
2022/03/03 07:18:50;;;;;;;;;;;21.90;49.40;;;;;;5034076;28;1979;-43
2022/03/03 07:21:20;;;;;;;;;;;22.00;49.80;;;;;;5034298;28;1008;-44
2022/03/03 07:23:48;;;;;;;;;;;21.90;49.70;;;;;;5035306;28;959;-47
2022/03/03 07:26:16;;;;;;;;;;;22.00;49.30;;;;;;5034451;28;1015;-45
2022/03/03 07:28:46;;;;;;;;;;;21.90;49.40;;;;;;5034575;28;1043;-45
2022/03/03 07:31:15;;;;;;;;;;;21.90;49.60;;;;;;5034305;28;1167;-45
2022/03/03 07:33:48;;;;;;;;;;;21.80;49.90;;;;;;5035332;28;997;-48
2022/03/03 07:36:17;;;;;;;;;;;21.70;49.90;;;;;;5035301;28;1023;-45
2022/03/03 07:38:50;;;;;;;;;;;21.70;50.00;;;;;;5034515;28;955;-46
2022/03/03 07:41:17;;;;;;;;;;;21.70;50.00;;;;;;5035112;28;1973;-45
2022/03/03 07:43:45;;;;;;;;;;;21.70;50.10;;;;;;5034681;28;996;-43
2022/03/03 07:46:12;;;;;;;;;;;21.70;50.00;;;;;;5035300;28;1031;-45
2022/03/03 07:48:40;;;;;;;;;;;21.70;50.00;;;;;;5034679;28;943;-47
2022/03/03 07:51:06;;;;;;;;;;;21.60;50.00;;;;;;5035172;28;972;-47
2022/03/03 07:53:33;;;;;;;;;;;21.60;50.10;;;;;;5034238;28;924;-45
2022/03/03 07:56:03;;;;;;;;;;;21.60;50.00;;;;;;5034869;28;1021;-46
2022/03/03 07:58:30;;;;;;;;;;;21.60;49.90;;;;;;5033168;28;925;-46
2022/03/03 08:01:00;;;;;;;;;;;21.60;49.90;;;;;;5034058;28;1914;-47
2022/03/03 08:03:27;;;;;;;;;;;21.60;49.90;;;;;;5032923;28;921;-45
2022/03/03 08:05:55;;;;;;;;;;;21.60;49.80;;;;;;5033456;28;975;-45
2022/03/03 08:08:23;;;;;;;;;;;21.60;49.80;;;;;;5033634;28;1161;-44
2022/03/03 08:10:50;;;;;;;;;;;21.60;49.80;;;;;;5033840;28;1035;-47
2022/03/03 08:13:18;;;;;;;;;;;21.60;49.60;;;;;;5033660;28;818;-45
2022/03/03 08:15:46;;;;;;;;;;;21.60;49.70;;;;;;5034626;28;998;-46
2022/03/03 08:18:15;;;;;;;;;;;21.60;49.80;;;;;;5033943;28;960;-45
2022/03/03 08:20:41;;;;;;;;;;;21.60;49.80;;;;;;5033491;27;1922;-47
2022/03/03 08:23:08;;;;;;;;;;;21.60;49.70;;;;;;5033583;28;985;-46
2022/03/03 08:25:36;;;;;;;;;;;21.60;49.60;;;;;;5032765;28;970;-47
2022/03/03 08:28:03;;;;;;;;;;;21.60;49.60;;;;;;5032372;28;1069;-44
2022/03/03 08:30:31;;;;;;;;;;;21.60;49.60;;;;;;5032305;28;1049;-46
2022/03/03 08:33:00;;;;;;;;;;;21.60;49.60;;;;;;5032066;28;1007;-46
2022/03/03 08:35:31;;;;;;;;;;;21.60;49.60;;;;;;5032658;28;996;-46
2022/03/03 08:38:01;;;;;;;;;;;21.60;49.60;;;;;;5032742;28;1024;-47
2022/03/03 08:40:28;;;;;;;;;;;21.60;49.60;;;;;;5031442;28;1910;-44
2022/03/03 08:42:57;;;;;;;;;;;21.60;49.40;;;;;;5032175;28;943;-45
2022/03/03 08:45:28;;;;;;;;;;;21.60;49.40;;;;;;5031863;28;866;-46
2022/03/03 08:47:57;;;;;;;;;;;21.70;49.30;;;;;;5033423;28;900;-46
2022/03/03 08:50:27;;;;;;;;;;;21.70;49.40;;;;;;5034118;28;986;-45
2022/03/03 08:52:56;;;;;;;;;;;21.70;49.30;;;;;;5032371;28;1003;-47
2022/03/03 08:55:23;;;;;;;;;;;21.70;49.30;;;;;;5030868;28;972;-45
2022/03/03 08:57:50;;;;;;;;;;;21.70;49.20;;;;;;5031706;28;1016;-46
2022/03/03 09:00:17;;;;;;;;;;;21.70;49.10;;;;;;5031636;28;1992;-43
2022/03/03 09:02:44;;;;;;;;;;;21.70;49.20;;;;;;5031866;28;976;-47
2022/03/03 09:05:11;;;;;;;;;;;21.70;49.20;;;;;;5029952;28;999;-45
2022/03/03 09:07:37;;;;;;;;;;;21.70;49.10;;;;;;5029030;28;1153;-47
2022/03/03 09:10:06;;;;;;;;;;;21.70;49.10;;;;;;5031102;28;951;-45
2022/03/03 09:12:33;;;;;;;;;;;21.70;49.10;;;;;;5031039;28;992;-46
2022/03/03 09:15:00;;;;;;;;;;;21.70;49.10;;;;;;5030969;28;1058;-46
2022/03/03 09:17:27;;;;;;;;;;;21.70;49.20;;;;;;5031248;28;995;-46
2022/03/03 09:19:53;;;;;;;;;;;21.70;49.10;;;;;;5031529;28;1929;-45
2022/03/03 09:22:20;;;;;;;;;;;21.70;49.20;;;;;;5030434;28;944;-45
2022/03/03 09:24:47;;;;;;;;;;;21.70;49.20;;;;;;5029443;28;1039;-45
2022/03/03 09:27:15;;;;;;;;;;;21.70;49.00;;;;;;5030828;28;948;-46
2022/03/03 09:29:41;;;;;;;;;;;21.70;49.10;;;;;;5030516;28;1000;-44
2022/03/03 09:32:09;;;;;;;;;;;21.70;49.10;;;;;;5029794;28;996;-46
2022/03/03 09:34:36;;;;;;;;;;;21.70;49.10;;;;;;5031070;28;951;-46
2022/03/03 09:37:03;;;;;;;;;;;21.70;49.10;;;;;;5031086;28;1461;-46
2022/03/03 09:39:30;;;;;;;;;;;21.70;49.00;;;;;;5030227;28;1024;-42
2022/03/03 09:41:57;;;;;;;;;;;21.70;49.10;;;;;;5030869;28;1906;-46
2022/03/03 09:44:25;;;;;;;;;;;21.70;49.10;;;;;;5031469;28;1028;-45
2022/03/03 09:46:52;;;;;;;;;;;21.70;49.20;;;;;;5033827;28;1044;-46
2022/03/03 09:49:20;;;;;;;;;;;21.60;49.10;;;;;;5033811;28;948;-46
2022/03/03 09:51:47;;;;;;;;;;;21.60;49.20;;;;;;5034480;28;940;-46
2022/03/03 09:54:15;;;;;;;;;;;21.60;49.20;;;;;;5033802;28;963;-46
2022/03/03 09:56:41;;;;;;;;;;;21.70;49.20;;;;;;5034823;28;1015;-47
2022/03/03 09:59:08;;;;;;;;;;;21.60;49.10;;;;;;5033894;28;1102;-45
2022/03/03 10:01:37;;;;;;;;;;;21.70;49.20;;;;;;5033497;28;1902;-45
2022/03/03 10:04:18;;;;;;;;;;;21.60;49.20;;;;;;5033475;28;893;-46
2022/03/03 10:06:45;;;;;;;;;;;21.60;49.10;;;;;;5033863;28;985;-45
2022/03/03 10:09:12;;;;;;;;;;;21.60;49.10;;;;;;5034538;28;1017;-45
2022/03/03 10:11:58;;;;;;;;;;;21.60;49.10;;;;;;5035062;28;1235;-46
2022/03/03 10:14:26;;;;;;;;;;;21.60;49.20;;;;;;5034432;28;980;-46
2022/03/03 10:16:54;;;;;;;;;;;21.60;49.20;;;;;;5034667;28;1024;-47
2022/03/03 10:19:21;;;;;;;;;;;21.60;49.20;;;;;;5035497;28;1015;-45
2022/03/03 10:21:48;;;;;;;;;;;21.60;49.10;;;;;;5034813;28;1985;-47
2022/03/03 10:24:15;;;;;;;;;;;21.60;49.20;;;;;;5034930;28;862;-46
2022/03/03 10:26:44;;;;;;;;;;;21.60;49.10;;;;;;5033727;28;988;-45
2022/03/03 10:29:18;;;;;;;;;;;21.60;49.20;;;;;;5033572;28;1004;-45
2022/03/03 10:31:48;;;;;;;;;;;21.60;49.20;;;;;;5033809;28;931;-44
2022/03/03 10:34:20;;;;;;;;;;;21.60;49.20;;;;;;5033446;28;887;-44
2022/03/03 10:36:57;;;;;;;;;;;21.60;49.20;;;;;;5034229;28;1448;-44
2022/03/03 10:39:24;;;;;;;;;;;21.60;49.20;;;;;;5035222;28;2068;-45
2022/03/03 10:41:55;;;;;;;;;;;21.60;49.20;;;;;;5034479;28;1941;-45
2022/03/03 10:44:23;;;;;;;;;;;21.60;49.20;;;;;;5034775;28;1020;-44
2022/03/03 10:47:01;;;;;;;;;;;21.50;49.20;;;;;;5033786;28;1028;-44
2022/03/03 10:49:29;;;;;;;;;;;21.50;49.20;;;;;;5034166;28;932;-42
2022/03/03 10:52:08;;;;;;;;;;;21.50;49.30;;;;;;5034225;28;1020;-45
2022/03/03 10:54:47;;;;;;;;;;;21.60;49.40;;;;;;5034854;28;1834;-42
2022/03/03 10:57:29;;;;;;;;;;;21.60;49.20;;;;;;5034513;28;1024;-45
2022/03/03 10:59:57;;;;;;;;;;;21.60;49.20;;;;;;5033596;28;1447;-41
2022/03/03 11:02:24;;;;;;;;;;;21.50;49.20;;;;;;5033466;28;1983;-44
2022/03/03 11:04:53;;;;;;;;;;;21.50;49.30;;;;;;5033566;28;901;-44
2022/03/03 11:07:20;;;;;;;;;;;21.60;49.30;;;;;;5031366;28;1106;-46
2022/03/03 11:09:47;;;;;;;;;;;21.60;49.40;;;;;;5034648;28;969;-44
2022/03/03 11:12:14;;;;;;;;;;;21.50;49.30;;;;;;5033730;28;944;-44
2022/03/03 11:14:41;;;;;;;;;;;21.50;49.20;;;;;;5031967;28;935;-42
2022/03/03 11:17:09;;;;;;;;;;;21.50;49.30;;;;;;5032344;28;948;-43
2022/03/03 11:19:36;;;;;;;;;;;21.50;49.30;;;;;;5033114;28;1032;-43
2022/03/03 11:22:05;;;;;;;;;;;21.50;49.20;;;;;;5032693;28;1987;-45
2022/03/03 11:24:33;;;;;;;;;;;21.50;49.20;;;;;;5032970;28;1034;-45
2022/03/03 11:27:00;;;;;;;;;;;21.60;49.20;;;;;;5032062;28;1013;-45
2022/03/03 11:29:27;;;;;;;;;;;21.50;49.20;;;;;;5031502;28;1017;-44
2022/03/03 11:32:00;;;;;;;;;;;21.50;49.20;;;;;;5033400;28;1077;-45
2022/03/03 11:34:30;;;;;;;;;;;21.50;49.20;;;;;;5034125;28;1020;-43
2022/03/03 11:37:07;;;;;;;;;;;21.50;49.40;;;;;;5033474;28;998;-44
2022/03/03 11:39:38;;;;;;;;;;;21.50;49.20;;;;;;5033771;28;959;-44
2022/03/03 11:42:19;;;;;;;;;;;21.50;49.30;;;;;;5031935;28;1909;-44
2022/03/03 11:44:46;;;;;;;;;;;21.50;49.30;;;;;;5032182;28;939;-45
2022/03/03 11:47:20;;;;;;;;;;;21.50;49.30;;;;;;5033859;28;1012;-45
2022/03/03 11:50:04;;;;;;;;;;;21.50;49.50;;;;;;5032626;28;977;-43
2022/03/03 11:52:33;;;;;;;;;;;21.50;49.30;;;;;;5034578;28;944;-45
2022/03/03 11:55:19;;;;;;;;;;;21.50;49.20;;;;;;5031318;28;1003;-42
2022/03/03 11:57:46;;;;;;;;;;;21.50;49.30;;;;;;5031227;28;1895;-44
2022/03/03 12:00:18;;;;;;;;;;;21.50;49.30;;;;;;5030842;28;1042;-45
2022/03/03 12:02:53;;;;;;;;;;;21.50;49.30;;;;;;5031812;28;952;-44
2022/03/03 12:05:41;;;;;;;;;;;21.50;49.30;;;;;;5033820;28;988;-45
2022/03/03 12:08:27;;;;;;;;;;;21.50;49.40;;;;;;5032486;28;1377;-44
2022/03/03 12:10:58;;;;;;;;;;;21.40;49.40;;;;;;5032994;28;902;-43
2022/03/03 12:13:27;;;;;;;;;;;21.50;49.40;;;;;;5033100;28;1000;-42
2022/03/03 12:16:17;;;;;;;;;;;21.50;49.40;;;;;;5030966;28;998;-43
2022/03/03 12:18:44;;;;;;;;;;;21.40;49.30;;;;;;5031653;28;1030;-44
2022/03/03 12:21:24;;;;;;;;;;;21.40;49.30;;;;;;5032515;28;1906;-44
2022/03/03 12:23:51;;;;;;;;;;;21.40;49.30;;;;;;5033363;28;913;-44
2022/03/03 12:26:19;;;;;;;;;;;21.40;49.20;;;;;;5032479;28;965;-44
2022/03/03 12:28:47;;;;;;;;;;;21.40;49.40;;;;;;5033078;28;1025;-44
2022/03/03 12:31:21;;;;;;;;;;;21.40;49.30;;;;;;5033606;28;1847;-44
2022/03/03 12:33:56;;;;;;;;;;;21.40;49.40;;;;;;5032381;28;2494;-44
2022/03/03 12:36:22;;;;;;;;;;;21.40;49.30;;;;;;5033553;28;1012;-45
2022/03/03 12:38:49;;;;;;;;;;;21.50;49.30;;;;;;5032766;28;1020;-45
2022/03/03 12:41:16;;;;;;;;;;;21.50;49.30;;;;;;5033254;28;1914;-43
2022/03/03 12:43:44;;;;;;;;;;;21.40;49.20;;;;;;5032542;28;988;-45
2022/03/03 12:46:11;;;;;;;;;;;21.40;49.30;;;;;;5030974;28;948;-45
2022/03/03 12:48:39;;;;;;;;;;;21.40;49.40;;;;;;5031816;28;956;-45
2022/03/03 12:51:06;;;;;;;;;;;21.40;49.40;;;;;;5032011;28;1004;-45
2022/03/03 12:53:34;;;;;;;;;;;21.50;49.20;;;;;;5033224;28;1182;-44
2022/03/03 12:56:01;;;;;;;;;;;21.50;49.30;;;;;;5031775;28;965;-45
2022/03/03 12:58:30;;;;;;;;;;;21.40;49.30;;;;;;5032207;28;1067;-46
2022/03/03 13:00:59;;;;;;;;;;;21.40;49.30;;;;;;5032981;28;1987;-45
2022/03/03 13:03:31;;;;;;;;;;;21.40;49.40;;;;;;5031913;28;1007;-44
2022/03/03 13:05:58;;;;;;;;;;;21.40;49.30;;;;;;5029983;28;1033;-42
2022/03/03 13:08:26;;;;;;;;;;;21.40;49.20;;;;;;5030522;28;1019;-45
2022/03/03 13:10:54;;;;;;;;;;;21.40;49.20;;;;;;5031693;28;1031;-44
2022/03/03 13:13:20;;;;;;;;;;;21.40;49.40;;;;;;5031932;28;952;-43
2022/03/03 13:15:47;;;;;;;;;;;21.40;49.40;;;;;;5030279;28;988;-43
2022/03/03 13:18:16;;;;;;;;;;;21.40;49.30;;;;;;5029577;28;1009;-44
2022/03/03 13:20:44;;;;;;;;;;;21.50;49.40;;;;;;5029970;28;993;-43
2022/03/03 13:23:12;;;;;;;;;;;21.40;49.40;;;;;;5030377;28;979;-45
2022/03/03 13:25:39;;;;;;;;;;;21.40;49.30;;;;;;5031125;28;976;-44
2022/03/03 13:28:06;;;;;;;;;;;21.40;49.20;;;;;;5031440;28;1051;-44
2022/03/03 13:30:33;;;;;;;;;;;21.50;49.30;;;;;;5030893;28;1015;-45
2022/03/03 13:33:00;;;;;;;;;;;21.40;49.30;;;;;;5031510;28;894;-45
2022/03/03 13:35:37;;;;;;;;;;;21.50;49.20;;;;;;5032651;28;995;-41
2022/03/03 13:38:05;;;;;;;;;;;21.50;49.30;;;;;;5030083;28;1035;-43
2022/03/03 13:40:32;;;;;;;;;;;21.40;49.20;;;;;;5030829;28;982;-44
2022/03/03 13:42:59;;;;;;;;;;;21.40;49.20;;;;;;5030913;28;1906;-46
2022/03/03 13:45:27;;;;;;;;;;;21.50;49.10;;;;;;5030486;28;984;-44
2022/03/03 13:48:01;;;;;;;;;;;21.50;49.00;;;;;;5028997;28;857;-44
2022/03/03 13:50:29;;;;;;;;;;;21.50;49.10;;;;;;5028979;28;963;-45
2022/03/03 13:53:12;;;;;;;;;;;21.50;49.00;;;;;;5029545;28;1000;-45
2022/03/03 13:55:39;;;;;;;;;;;21.50;49.00;;;;;;5030252;28;973;-42
2022/03/03 13:58:06;;;;;;;;;;;21.50;49.00;;;;;;5028238;28;858;-44
2022/03/03 14:00:33;;;;;;;;;;;21.50;49.00;;;;;;5028947;28;1032;-43
2022/03/03 14:03:01;;;;;;;;;;;21.50;49.00;;;;;;5027567;28;1981;-43
2022/03/03 14:05:33;;;;;;;;;;;21.50;49.00;;;;;;5028057;28;1024;-43
2022/03/03 14:08:01;;;;;;;;;;;21.50;49.00;;;;;;5029424;28;1169;-40
2022/03/03 14:10:45;;;;;;;;;;;21.50;49.10;;;;;;5028518;28;1312;-43
2022/03/03 14:13:11;;;;;;;;;;;21.50;49.00;;;;;;5028684;28;873;-45
2022/03/03 14:15:38;;;;;;;;;;;21.50;49.00;;;;;;5029998;28;973;-45
2022/03/03 14:18:05;;;;;;;;;;;21.60;49.10;;;;;;5029519;28;1008;-43
2022/03/03 14:20:34;;;;;;;;;;;21.60;49.10;;;;;;5029378;28;995;-45
2022/03/03 14:23:01;;;;;;;;;;;21.60;49.00;;;;;;5030116;28;1902;-44
2022/03/03 14:25:30;;;;;;;;;;;21.60;49.00;;;;;;5030021;28;1006;-45
2022/03/03 14:27:58;;;;;;;;;;;21.60;49.00;;;;;;5030475;28;960;-46
2022/03/03 14:30:25;;;;;;;;;;;21.60;49.00;;;;;;5030309;28;884;-45
2022/03/03 14:32:52;;;;;;;;;;;21.60;49.00;;;;;;5032476;28;951;-42
2022/03/03 14:35:18;;;;;;;;;;;21.70;48.90;;;;;;5032707;28;996;-45
2022/03/03 14:37:47;;;;;;;;;;;21.70;48.90;;;;;;5030706;28;1000;-44
2022/03/03 14:40:14;;;;;;;;;;;21.70;48.90;;;;;;5030373;28;994;-43
2022/03/03 14:42:41;;;;;;;;;;;21.70;48.90;;;;;;5032291;28;1903;-43